Marina Lobra — IXVN — position and weather

sailwx.info

Track history (hours):
 
Tides and Currents Weather Stations Pressure Air Temp Water Temp Dewpoint Dewpoint Depression Visibility Wind Speed Wind Dir Waves Ship Positions

Marina Lobra

Last reported at 2014-Jul-24 13:27 UTC. Time now 2014-Jul-25 18:27 UTC.
Position N 40°50' E 014°16'.

Length 56 m; draft 3.1 m.

Type: Ship (hazmat cat C). MMSI: 247188300.

Date/timePositionNaut miles runAvg speedWind from/ knotsBaromVisibWave heightAir tempDewpointWater temp
2014-Jul-24 13:27N 40°50' E 014°16'1 1.0
2014-Jul-24 12:33N 40°50' E 014°17'0 0.0
2014-Jul-24 11:34N 40°50' E 014°17'0 0.0
2014-Jul-24 10:33N 40°50' E 014°17'0 0.0
2014-Jul-24 09:33N 40°50' E 014°17'0 0.0
2014-Jul-24 08:33N 40°50' E 014°17'0 0.0
2014-Jul-24 07:33N 40°50' E 014°17'0 0.0
2014-Jul-24 06:33N 40°50' E 014°17'  
2014-Jul-21 11:17N 40°50' E 014°15'1 2.0
2014-Jul-21 10:33N 40°50' E 014°17'0 0.0
2014-Jul-21 09:33N 40°50' E 014°17'0 0.0
2014-Jul-21 08:26N 40°50' E 014°17'0 0.0
2014-Jul-21 07:31N 40°50' E 014°17'0 0.0
2014-Jul-21 06:32N 40°50' E 014°17'1 1.3
2014-Jul-21 05:33N 40°51' E 014°16'3 0.1
2014-Jul-19 05:33N 40°48' E 014°18'6 6.0
2014-Jul-19 04:34N 40°42' E 014°17'6 6.2
2014-Jul-19 03:34N 40°36' E 014°15'3 2.5
2014-Jul-19 02:33N 40°33' E 014°14'0 0.0
2014-Jul-19 01:34N 40°33' E 014°14'0 0.0
2014-Jul-19 00:33N 40°33' E 014°14'0 0.0
2014-Jul-18 23:34N 40°33' E 014°14'0 0.0
2014-Jul-18 22:33N 40°33' E 014°14'0 0.0
2014-Jul-18 21:34N 40°33' E 014°14'0 0.0
2014-Jul-18 20:33N 40°33' E 014°14'0 0.0
2014-Jul-18 19:34N 40°33' E 014°14'1 0.7
2014-Jul-18 18:33N 40°34' E 014°15'1 1.5
2014-Jul-18 17:33N 40°35' E 014°15'6 5.7
2014-Jul-18 16:34N 40°41' E 014°16'6 5.6
2014-Jul-18 15:33N 40°47' E 014°18'4 3.5
2014-Jul-18 14:34N 40°50' E 014°17'0 0.0
2014-Jul-18 13:34N 40°50' E 014°17'0 0.0
2014-Jul-18 12:34N 40°50' E 014°17'0 0.0
2014-Jul-18 11:34N 40°50' E 014°17'0 0.0
2014-Jul-18 10:34N 40°50' E 014°17'0 0.0
2014-Jul-18 09:34N 40°50' E 014°17'0 0.0
2014-Jul-18 08:33N 40°50' E 014°17'0 0.0
2014-Jul-18 07:33N 40°50' E 014°17'0 0.0
2014-Jul-18 06:33N 40°50' E 014°17'1 0.1
2014-Jul-17 21:33N 40°51' E 014°16'0 0.0
2014-Jul-17 20:33N 40°51' E 014°16'0 0.0
2014-Jul-17 19:33N 40°51' E 014°16'0 0.0
2014-Jul-17 18:14N 40°51' E 014°16'0 0.0
2014-Jul-17 17:33N 40°51' E 014°16'0 0.0
2014-Jul-17 15:09N 40°51' E 014°16'0 0.0
2014-Jul-17 14:26N 40°51' E 014°16'0 0.2
2014-Jul-17 13:18N 40°51' E 014°16'0 0.0
2014-Jul-17 12:33N 40°51' E 014°16'0 0.0
2014-Jul-17 11:32N 40°51' E 014°16'0 0.0
2014-Jul-17 10:31N 40°50' E 014°16'0 0.2
2014-Jul-17 09:33N 40°50' E 014°16'1 0.1
2014-Jul-16 11:13N 40°50' E 014°17'0 0.0
2014-Jul-16 10:34N 40°50' E 014°17'0 0.0
2014-Jul-16 09:30N 40°50' E 014°17'0 0.0
2014-Jul-16 08:31N 40°50' E 014°17'0 0.0
2014-Jul-16 07:32N 40°50' E 014°17'0 0.0
2014-Jul-16 06:33N 40°50' E 014°17'1 0.0
2014-Jul-15 11:04N 40°50' E 014°17'1 0.6
2014-Jul-15 10:09N 40°50' E 014°17'0 0.0
2014-Jul-15 08:30N 40°50' E 014°17'0 0.0
2014-Jul-15 07:32N 40°50' E 014°17'0 0.0
2014-Jul-15 06:33N 40°50' E 014°17'  
Track history (hours):
 
Tides and Currents Weather Stations Pressure Air Temp Water Temp Dewpoint Dewpoint Depression Visibility Wind Speed Wind Dir Waves Ship Positions

Marina Lobra

Last reported at 2014-Jul-24 13:27 UTC. Time now 2014-Jul-25 18:27 UTC.
Position N 40°50' E 014°16'.

Length 56 m; draft 3.1 m.

Type: Ship (hazmat cat C). MMSI: 247188300.

Date/timePositionNaut miles runAvg speedWind from/ knotsBaromVisibWave heightAir tempDewpointWater temp
2014-Jul-24 13:27N 40°50' E 014°16'1 1.0
2014-Jul-24 12:33N 40°50' E 014°17'0 0.0
2014-Jul-24 11:34N 40°50' E 014°17'0 0.0
2014-Jul-24 10:33N 40°50' E 014°17'0 0.0
2014-Jul-24 09:33N 40°50' E 014°17'0 0.0
2014-Jul-24 08:33N 40°50' E 014°17'0 0.0
2014-Jul-24 07:33N 40°50' E 014°17'0 0.0
2014-Jul-24 06:33N 40°50' E 014°17'  
2014-Jul-21 11:17N 40°50' E 014°15'1 2.0
2014-Jul-21 10:33N 40°50' E 014°17'0 0.0
2014-Jul-21 09:33N 40°50' E 014°17'0 0.0
2014-Jul-21 08:26N 40°50' E 014°17'0 0.0
2014-Jul-21 07:31N 40°50' E 014°17'0 0.0
2014-Jul-21 06:32N 40°50' E 014°17'1 1.3
2014-Jul-21 05:33N 40°51' E 014°16'3 0.1
2014-Jul-19 05:33N 40°48' E 014°18'6 6.0
2014-Jul-19 04:34N 40°42' E 014°17'6 6.2
2014-Jul-19 03:34N 40°36' E 014°15'3 2.5
2014-Jul-19 02:33N 40°33' E 014°14'0 0.0
2014-Jul-19 01:34N 40°33' E 014°14'0 0.0
2014-Jul-19 00:33N 40°33' E 014°14'0 0.0
2014-Jul-18 23:34N 40°33' E 014°14'0 0.0
2014-Jul-18 22:33N 40°33' E 014°14'0 0.0
2014-Jul-18 21:34N 40°33' E 014°14'0 0.0
2014-Jul-18 20:33N 40°33' E 014°14'0 0.0
2014-Jul-18 19:34N 40°33' E 014°14'1 0.7
2014-Jul-18 18:33N 40°34' E 014°15'1 1.5
2014-Jul-18 17:33N 40°35' E 014°15'6 5.7
2014-Jul-18 16:34N 40°41' E 014°16'6 5.6
2014-Jul-18 15:33N 40°47' E 014°18'4 3.5
2014-Jul-18 14:34N 40°50' E 014°17'0 0.0
2014-Jul-18 13:34N 40°50' E 014°17'0 0.0
2014-Jul-18 12:34N 40°50' E 014°17'0 0.0
2014-Jul-18 11:34N 40°50' E 014°17'0 0.0
2014-Jul-18 10:34N 40°50' E 014°17'0 0.0
2014-Jul-18 09:34N 40°50' E 014°17'0 0.0
2014-Jul-18 08:33N 40°50' E 014°17'0 0.0
2014-Jul-18 07:33N 40°50' E 014°17'0 0.0
2014-Jul-18 06:33N 40°50' E 014°17'1 0.1
2014-Jul-17 21:33N 40°51' E 014°16'0 0.0
2014-Jul-17 20:33N 40°51' E 014°16'0 0.0
2014-Jul-17 19:33N 40°51' E 014°16'0 0.0
2014-Jul-17 18:14N 40°51' E 014°16'0 0.0
2014-Jul-17 17:33N 40°51' E 014°16'0 0.0
2014-Jul-17 15:09N 40°51' E 014°16'0 0.0
2014-Jul-17 14:26N 40°51' E 014°16'0 0.2
2014-Jul-17 13:18N 40°51' E 014°16'0 0.0
2014-Jul-17 12:33N 40°51' E 014°16'0 0.0
2014-Jul-17 11:32N 40°51' E 014°16'0 0.0
2014-Jul-17 10:31N 40°50' E 014°16'0 0.2
2014-Jul-17 09:33N 40°50' E 014°16'1 0.1
2014-Jul-16 11:13N 40°50' E 014°17'0 0.0
2014-Jul-16 10:34N 40°50' E 014°17'0 0.0
2014-Jul-16 09:30N 40°50' E 014°17'0 0.0
2014-Jul-16 08:31N 40°50' E 014°17'0 0.0
2014-Jul-16 07:32N 40°50' E 014°17'0 0.0
2014-Jul-16 06:33N 40°50' E 014°17'1 0.0
2014-Jul-15 11:04N 40°50' E 014°17'1 0.6
2014-Jul-15 10:09N 40°50' E 014°17'0 0.0
2014-Jul-15 08:30N 40°50' E 014°17'0 0.0
2014-Jul-15 07:32N 40°50' E 014°17'0 0.0
2014-Jul-15 06:33N 40°50' E 014°17'  

Dump ship's entire track history